Time;durP1;ratioP1;P1;durP2;ratioP2;P2;SDS_P1;SDS_P2;PMS_P1;PMS_P2;Temp;Humidity;BMP_temperature;BMP_pressure;BME280_temperature;BME280_humidity;BME280_pressure;Samples;Min_cycle;Max_cycle;Signal;HPM_P1;HPM_P2
2022/02/03 00:02:13;;;;;;;0.40;0.30;;;;;;;2.61;97.84;101413.84;5115284;28;20464;-70
2022/02/03 00:04:49;;;;;;;0.40;0.30;;;;;;;2.58;97.75;101409.78;5115258;28;20424;-70
2022/02/03 00:07:21;;;;;;;0.40;0.30;;;;;;;2.58;97.57;101409.78;5115189;28;20511;-70
2022/02/03 00:10:17;;;;;;;0.40;0.30;;;;;;;2.58;97.17;101412.44;5115127;28;20416;-70
2022/02/03 00:26:55;;;;;;;0.40;0.30;;;;;;;2.28;96.88;101434.63;5114322;27;20442;-70
2022/02/03 00:29:44;;;;;;;0.40;0.27;;;;;;;2.31;96.39;101435.25;5114781;28;20431;-70
2022/02/03 00:32:27;;;;;;;0.40;0.30;;;;;;;2.31;95.97;101440.59;5114746;28;20442;-70
2022/02/03 00:35:18;;;;;;;0.40;0.30;;;;;;;2.22;96.39;101437.41;5114596;28;20467;-70
2022/02/03 00:37:59;;;;;;;0.40;0.30;;;;;;;2.15;96.08;101445.47;5113946;28;20442;-70
2022/02/03 00:48:45;;;;;;;0.40;0.30;;;;;;;2.10;97.09;101445.34;5114470;28;20400;-70
2022/02/03 00:51:12;;;;;;;0.40;0.30;;;;;;;2.08;97.56;101444.75;5114325;28;20503;-70
2022/02/03 00:53:40;;;;;;;0.40;0.30;;;;;;;2.11;98.47;101440.81;5114325;28;20462;-70
2022/02/03 00:56:13;;;;;;;0.40;0.30;;;;;;;2.18;98.96;101453.06;5114198;28;20486;-70
2022/02/03 00:58:42;;;;;;;0.40;0.30;;;;;;;2.20;98.75;101453.63;5114221;28;20423;-70
2022/02/03 01:01:15;;;;;;;0.40;0.30;;;;;;;2.13;98.43;101446.75;5114120;28;20463;-70
2022/02/03 01:03:43;;;;;;;0.40;0.30;;;;;;;2.11;98.78;101440.81;5114151;28;20423;-70
2022/02/03 01:06:14;;;;;;;0.40;0.30;;;;;;;2.13;99.59;101436.88;5114038;28;20439;-70
2022/02/03 01:08:44;;;;;;;0.40;0.30;;;;;;;2.19;99.28;101441.31;5114110;28;20438;-70
2022/02/03 01:11:18;;;;;;;0.40;0.30;;;;;;;2.22;99.09;101440.06;5114090;28;20459;-70
2022/02/03 01:13:50;;;;;;;0.40;0.30;;;;;;;2.23;99.00;101444.38;5114023;28;20423;-70
2022/02/03 01:16:29;;;;;;;0.40;0.30;;;;;;;2.23;98.86;101447.03;5113976;28;20463;-70
2022/02/03 01:19:25;;;;;;;0.40;0.30;;;;;;;2.22;98.82;101443.56;5114034;28;20484;-70
2022/02/03 01:44:13;;;;;;;0.40;0.30;;;;;;;2.57;100.00;101444.75;5113529;28;20441;-70
2022/02/03 01:46:50;;;;;;;0.40;0.30;;;;;;;2.57;100.00;101437.56;5113839;28;20427;-70
2022/02/03 01:49:38;;;;;;;0.40;0.30;;;;;;;2.64;100.00;101446.28;5117915;28;20443;-70
2022/02/03 01:52:10;;;;;;;0.40;0.30;;;;;;;2.67;99.52;101434.34;5117839;28;20453;-70
2022/02/03 01:54:38;;;;;;;0.40;0.30;;;;;;;2.71;99.57;101430.97;5117693;28;20485;-70
2022/02/03 01:57:08;;;;;;;0.40;0.30;;;;;;;2.74;99.03;101422.47;5117680;28;20447;-70
2022/02/03 01:59:37;;;;;;;0.40;0.30;;;;;;;2.73;98.81;101428.88;5118237;28;20465;-70
2022/02/03 02:02:06;;;;;;;0.40;0.30;;;;;;;2.75;99.44;101424.13;5117294;28;20960;-70
2022/02/03 02:05:02;;;;;;;0.40;0.20;;;;;;;2.78;99.06;101422.84;5117346;28;20478;-70
2022/02/03 02:07:39;;;;;;;0.40;0.30;;;;;;;2.80;98.87;101428.78;5108303;28;20501;-70
2022/02/03 02:10:22;;;;;;;0.40;0.20;;;;;;;2.78;98.99;101433.53;5117253;28;20469;-70
2022/02/03 02:13:08;;;;;;;0.40;0.30;;;;;;;2.80;99.09;101436.00;5117364;28;20432;-70
2022/02/03 02:16:01;;;;;;;0.40;0.30;;;;;;;2.79;98.96;101435.19;5117323;28;20463;-70
2022/02/03 02:18:57;;;;;;;0.40;0.30;;;;;;;2.80;99.15;101423.44;5117103;28;20514;-70
2022/02/03 02:38:13;;;;;;;0.40;0.30;;;;;;;2.89;100.00;101402.53;5116880;28;20911;-70
2022/02/03 02:43:37;;;;;;;0.40;0.20;;;;;;;2.95;99.47;101390.91;5116727;28;20445;-70
2022/02/03 02:46:09;;;;;;;0.40;0.30;;;;;;;2.94;99.32;101389.28;5117071;28;20419;-71
2022/02/03 02:49:08;;;;;;;0.40;0.30;;;;;;;2.94;99.96;101386.59;5116779;28;20424;-70
2022/02/03 02:51:48;;;;;;;0.40;0.30;;;;;;;2.97;99.79;101380.81;5116621;28;20470;-70
2022/02/03 02:54:42;;;;;;;0.40;0.23;;;;;;;2.99;99.40;101376.00;5116388;28;20484;-70
2022/02/03 02:57:35;;;;;;;0.40;0.20;;;;;;;3.00;99.30;101369.63;5116597;28;20843;-70
2022/02/03 03:00:30;;;;;;;0.40;0.20;;;;;;;3.01;99.23;101364.06;5115795;28;20554;-70
2022/02/03 03:03:23;;;;;;;0.40;0.30;;;;;;;3.03;99.61;101356.59;5116259;28;20917;-70
2022/02/03 03:30:44;;;;;;;0.40;0.30;;;;;;;3.38;99.08;101342.41;5115317;28;20547;-70
2022/02/03 03:33:22;;;;;;;0.40;0.20;;;;;;;3.43;99.09;101341.69;5115669;28;20423;-70
2022/02/03 03:35:51;;;;;;;0.40;0.30;;;;;;;3.48;98.90;101339.13;5115514;28;20482;-71
2022/02/03 03:38:20;;;;;;;0.40;0.30;;;;;;;3.49;98.43;101341.56;5115521;28;20528;-70
2022/02/03 03:40:49;;;;;;;0.40;0.20;;;;;;;3.48;98.44;101350.66;5115535;28;20546;-71
2022/02/03 03:43:25;;;;;;;0.40;0.20;;;;;;;3.51;98.21;101352.06;5115464;28;20427;-70
2022/02/03 03:45:54;;;;;;;0.40;0.20;;;;;;;3.49;98.20;101340.75;5115494;28;20431;-71
2022/02/03 03:48:30;;;;;;;0.40;0.30;;;;;;;3.55;98.07;101345.19;5115319;28;20849;-71
2022/02/03 03:51:02;;;;;;;0.40;0.20;;;;;;;3.57;97.76;101345.75;5115324;28;20493;-70
2022/02/03 03:53:37;;;;;;;0.40;0.30;;;;;;;3.58;97.34;101336.66;5115319;28;20435;-70
2022/02/03 03:56:10;;;;;;;0.40;0.30;;;;;;;3.53;97.74;101340.03;5115120;28;20561;-70
2022/02/03 04:39:44;;;;;;;0.40;0.30;;;;;;;3.57;97.60;101313.59;5114380;28;20923;-70
2022/02/03 04:42:47;;;;;;;0.40;0.30;;;;;;;3.55;97.73;101307.69;5114531;28;20443;-70
2022/02/03 04:51:21;;;;;;;0.40;0.20;;;;;;;3.66;97.91;101295.28;5114093;28;20438;-70
2022/02/03 04:57:21;;;;;;;0.40;0.30;;;;;;;3.69;97.08;101292.97;5114020;28;20509;-70
2022/02/03 05:00:29;;;;;;;0.40;0.30;;;;;;;3.68;96.61;101290.53;5114105;28;20439;-70
2022/02/03 05:03:46;;;;;;;0.40;0.20;;;;;;;3.65;97.21;101294.47;5114071;28;20462;-70
2022/02/03 05:06:29;;;;;;;0.40;0.30;;;;;;;3.64;97.21;101292.88;5108733;28;20447;-70
2022/02/03 05:09:22;;;;;;;0.40;0.27;;;;;;;3.60;96.78;101291.72;5114151;28;20424;-70
2022/02/03 05:12:14;;;;;;;0.40;0.30;;;;;;;3.57;97.36;101292.19;5113982;28;20884;-70
2022/02/03 05:15:19;;;;;;;0.40;0.30;;;;;;;3.56;97.16;101289.75;5114052;28;20434;-70
2022/02/03 05:21:44;;;;;;;0.40;0.30;;;;;;;3.46;98.66;101291.16;5113381;27;20458;-70
2022/02/03 05:45:24;;;;;;;0.40;0.23;;;;;;;3.48;96.59;101285.56;5113134;28;20488;-70
2022/02/03 05:51:06;;;;;;;0.40;0.30;;;;;;;3.49;96.47;101288.00;5104063;28;20459;-71
2022/02/03 06:02:06;;;;;;;0.40;0.27;;;;;;;3.56;95.52;101268.31;5071850;28;20482;-70
2022/02/03 06:04:48;;;;;;;0.40;0.27;;;;;;;3.59;95.32;101267.84;5113160;28;20475;-70
2022/02/03 06:07:39;;;;;;;0.40;0.30;;;;;;;3.60;95.32;101267.59;5113453;28;20424;-71
2022/02/03 06:12:58;;;;;;;0.40;0.27;;;;;;;3.65;94.89;101259.66;5113221;28;20410;-71
2022/02/03 06:15:33;;;;;;;0.40;0.30;;;;;;;3.67;94.87;101249.50;5113280;28;20472;-70
2022/02/03 06:23:51;;;;;;;0.40;0.30;;;;;;;3.70;94.67;101246.34;5113049;28;20419;-70
2022/02/03 06:29:06;;;;;;;0.40;0.20;;;;;;;3.75;94.71;101238.41;5113155;28;20399;-71
2022/02/03 06:31:34;;;;;;;0.40;0.30;;;;;;;3.75;95.01;101243.78;5112821;28;20467;-71
2022/02/03 06:34:03;;;;;;;0.40;0.23;;;;;;;3.73;95.34;101245.88;5113996;28;20467;-70
2022/02/03 06:36:30;;;;;;;0.40;0.30;;;;;;;3.71;95.64;101239.94;5116902;28;20479;-71
2022/02/03 06:38:56;;;;;;;0.40;0.30;;;;;;;3.65;94.49;101240.91;5117160;28;20447;-71
2022/02/03 06:41:23;;;;;;;0.40;0.30;;;;;;;3.65;94.25;101242.78;5116833;28;20467;-70
2022/02/03 06:43:49;;;;;;;0.40;0.30;;;;;;;3.61;94.50;101236.28;5116864;28;20489;-71
2022/02/03 06:46:16;;;;;;;0.40;0.30;;;;;;;3.69;94.48;101239.38;5116819;28;20439;-71
2022/02/03 06:48:49;;;;;;;0.40;0.30;;;;;;;3.64;94.59;101227.75;5116476;28;20960;-71
2022/02/03 06:51:24;;;;;;;0.40;0.30;;;;;;;3.69;94.33;101235.91;5116211;28;20475;-71
2022/02/03 06:54:04;;;;;;;0.40;0.30;;;;;;;3.67;94.10;101235.31;5116649;28;20431;-71
2022/02/03 06:56:37;;;;;;;0.40;0.30;;;;;;;3.64;93.55;101223.22;5115755;28;20849;-70
2022/02/03 06:59:08;;;;;;;0.40;0.30;;;;;;;3.59;93.62;101222.31;5116628;28;20518;-70
2022/02/03 07:01:38;;;;;;;0.40;0.30;;;;;;;3.54;93.64;101213.13;5117025;28;20459;-70
2022/02/03 07:04:15;;;;;;;0.40;0.30;;;;;;;3.53;93.56;101218.69;5116432;28;20538;-71
2022/02/03 07:06:42;;;;;;;0.40;0.30;;;;;;;3.54;94.12;101218.47;5116467;28;20473;-71
2022/02/03 07:09:10;;;;;;;0.40;0.30;;;;;;;3.61;94.10;101212.97;5116338;28;20470;-71
2022/02/03 07:11:38;;;;;;;0.40;0.30;;;;;;;3.63;94.21;101216.25;5116265;28;20467;-70
2022/02/03 07:14:07;;;;;;;0.40;0.30;;;;;;;3.63;94.35;101216.25;5116239;28;20538;-71
2022/02/03 07:16:36;;;;;;;0.40;0.30;;;;;;;3.70;94.00;101221.44;5116116;28;20479;-70
2022/02/03 07:19:03;;;;;;;0.40;0.30;;;;;;;3.70;93.81;101219.56;5115655;28;20466;-71
2022/02/03 07:21:29;;;;;;;0.40;0.20;;;;;;;3.67;93.25;101212.00;5116018;28;20448;-71
2022/02/03 07:23:57;;;;;;;0.40;0.30;;;;;;;3.73;93.44;101216.41;5115982;28;20447;-70
2022/02/03 07:26:23;;;;;;;0.40;0.20;;;;;;;3.72;93.77;101214.00;5115676;28;20937;-71
2022/02/03 07:28:49;;;;;;;0.40;0.30;;;;;;;3.77;94.07;101217.56;5115925;28;20440;-71
2022/02/03 07:31:16;;;;;;;0.40;0.30;;;;;;;3.84;93.95;101216.59;5115508;28;20467;-71
2022/02/03 07:33:42;;;;;;;0.40;0.30;;;;;;;3.84;93.53;101217.41;5115560;28;20447;-71
2022/02/03 07:36:09;;;;;;;0.40;0.20;;;;;;;3.87;93.74;101208.09;5115721;28;20486;-71
2022/02/03 07:38:37;;;;;;;0.40;0.30;;;;;;;3.94;93.54;101206.91;5115773;28;20440;-71
2022/02/03 07:41:05;;;;;;;0.40;0.20;;;;;;;3.99;93.72;101204.31;5115638;28;20471;-71
2022/02/03 07:43:32;;;;;;;0.40;0.27;;;;;;;3.97;93.60;101202.91;5115725;28;20521;-71
2022/02/03 07:45:59;;;;;;;0.40;0.27;;;;;;;4.04;93.76;101204.38;5115396;28;20451;-71
2022/02/03 07:48:25;;;;;;;0.40;0.30;;;;;;;4.02;93.99;101198.44;5115278;28;20444;-71
2022/02/03 07:50:52;;;;;;;0.40;0.20;;;;;;;4.10;94.02;101199.09;5115457;28;20459;-71
2022/02/03 07:53:18;;;;;;;1.27;0.30;;;;;;;4.16;94.04;101198.97;5115509;28;20439;-71
2022/02/03 07:55:46;;;;;;;0.40;0.20;;;;;;;4.18;94.21;101202.19;5115456;28;20443;-71
2022/02/03 07:58:14;;;;;;;0.40;0.20;;;;;;;4.21;94.29;101207.09;5115323;28;20844;-71
2022/02/03 08:00:41;;;;;;;0.40;0.30;;;;;;;4.28;93.96;101198.84;5115324;28;20489;-71
2022/02/03 08:03:11;;;;;;;0.40;0.30;;;;;;;4.29;93.64;101197.78;5115356;28;20475;-71
2022/02/03 08:05:38;;;;;;;0.40;0.30;;;;;;;4.32;94.05;101202.69;5114968;28;20937;-71
2022/02/03 08:08:13;;;;;;;0.40;0.30;;;;;;;4.39;93.82;101199.84;5115189;28;20435;-71
2022/02/03 08:10:43;;;;;;;0.40;0.30;;;;;;;4.47;93.73;101188.69;5115156;28;20563;-71
2022/02/03 08:13:14;;;;;;;0.40;0.27;;;;;;;4.51;93.72;101181.78;5115180;28;20435;-71
2022/02/03 08:15:43;;;;;;;0.40;0.20;;;;;;;4.57;92.61;101178.13;5115113;28;20427;-71
2022/02/03 08:18:14;;;;;;;0.40;0.23;;;;;;;4.65;92.35;101183.09;5114943;28;20487;-71
2022/02/03 08:20:48;;;;;;;0.40;0.30;;;;;;;4.69;91.95;101192.25;5114961;28;20499;-71
2022/02/03 08:23:39;;;;;;;0.40;0.30;;;;;;;4.77;91.70;101183.75;5114632;28;20427;-71
2022/02/03 08:26:11;;;;;;;0.40;0.30;;;;;;;4.80;92.15;101180.59;5114426;28;20440;-71
2022/02/03 08:31:25;;;;;;;0.40;0.30;;;;;;;5.02;91.58;101179.81;5113995;28;20478;-71
2022/02/03 08:33:54;;;;;;;0.40;0.20;;;;;;;5.15;91.24;101170.56;5114722;28;20837;-71
2022/02/03 08:36:21;;;;;;;0.40;0.23;;;;;;;5.19;91.10;101175.19;5114240;28;20933;-71
2022/02/03 08:38:53;;;;;;;1.37;1.27;;;;;;;5.29;90.89;101164.56;5114598;28;20489;-71
2022/02/03 08:41:21;;;;;;;0.40;0.30;;;;;;;5.38;91.12;101167.63;5114487;28;20463;-71
2022/02/03 08:43:47;;;;;;;0.40;0.30;;;;;;;5.47;90.73;101159.91;5114543;28;20454;-71
2022/02/03 08:46:15;;;;;;;0.40;0.30;;;;;;;5.48;90.44;101156.16;5114589;28;20513;-72
2022/02/03 08:48:43;;;;;;;0.40;0.20;;;;;;;5.54;91.08;101153.28;5114500;28;20439;-71
2022/02/03 08:51:12;;;;;;;0.40;0.30;;;;;;;5.59;90.41;101151.72;5114467;28;20463;-72
2022/02/03 08:53:40;;;;;;;0.40;0.30;;;;;;;5.61;90.02;101152.25;5114511;28;20492;-71
2022/02/03 08:56:18;;;;;;;0.40;0.30;;;;;;;5.63;89.64;101142.91;5113937;28;20924;-71
2022/02/03 09:30:14;;;;;;;0.40;0.30;;;;;;;6.31;92.77;101127.06;5113685;28;20415;-72
2022/02/03 09:35:24;;;;;;;0.40;0.20;;;;;;;6.41;92.72;101121.75;5113762;28;20426;-71
2022/02/03 09:41:05;;;;;;;0.40;0.20;;;;;;;6.49;92.54;101107.81;5104346;28;20455;-71
2022/02/03 09:57:20;;;;;;;0.40;0.30;;;;;;;6.73;93.10;101102.81;5113473;28;20463;-71
2022/02/03 09:59:56;;;;;;;0.40;0.20;;;;;;;6.75;93.33;101106.06;5113464;28;20438;-71
2022/02/03 10:02:25;;;;;;;0.40;0.30;;;;;;;6.78;93.40;101105.53;5113529;28;20432;-71
2022/02/03 10:04:54;;;;;;;0.40;0.30;;;;;;;6.79;94.07;101107.16;5113467;28;20861;-71
2022/02/03 10:07:25;;;;;;;3.03;2.83;;;;;;;6.82;94.08;101101.25;5113186;28;20959;-72
2022/02/03 10:09:54;;;;;;;0.40;0.30;;;;;;;6.79;94.72;101098.28;5117353;28;20427;-71
2022/02/03 10:12:30;;;;;;;0.40;0.30;;;;;;;6.82;95.21;101100.44;5117474;28;20803;-71
2022/02/03 10:14:57;;;;;;;0.40;0.20;;;;;;;6.80;95.63;101098.00;5117471;28;20430;-71
2022/02/03 10:17:32;;;;;;;0.40;0.30;;;;;;;6.87;95.87;101095.06;5116954;28;20485;-71
2022/02/03 10:20:00;;;;;;;0.40;0.30;;;;;;;6.88;96.52;101090.50;5116953;28;20558;-71
2022/02/03 10:22:27;;;;;;;0.40;0.27;;;;;;;6.87;97.16;101086.19;5117314;28;20439;-71
2022/02/03 10:25:08;;;;;;;0.40;0.30;;;;;;;6.90;97.25;101086.44;5117271;28;20447;-71
2022/02/03 10:27:38;;;;;;;0.40;0.30;;;;;;;6.88;97.81;101072.47;5117395;28;20423;-71
2022/02/03 10:30:16;;;;;;;0.40;0.20;;;;;;;6.86;99.26;101061.13;5116599;28;20976;-71
2022/02/03 10:32:44;;;;;;;0.40;0.30;;;;;;;6.88;99.71;101060.88;5117123;28;20431;-71
2022/02/03 10:35:19;;;;;;;0.40;0.30;;;;;;;6.87;100.00;101059.25;5117020;28;20439;-71
2022/02/03 10:37:50;;;;;;;0.40;0.30;;;;;;;6.82;100.00;101049.28;5116953;28;20483;-71
2022/02/03 10:40:41;;;;;;;0.40;0.30;;;;;;;6.78;100.00;101046.31;5117007;27;20900;-71
2022/02/03 10:43:27;;;;;;;0.40;0.30;;;;;;;6.76;100.00;101047.63;5116646;28;20890;-71
2022/02/03 10:46:13;;;;;;;0.40;0.23;;;;;;;6.71;100.00;101034.97;5116870;28;20431;-71
2022/02/03 10:51:46;;;;;;;0.40;0.20;;;;;;;6.70;100.00;101038.75;5116463;28;20509;-71
2022/02/03 10:54:38;;;;;;;0.40;0.20;;;;;;;6.70;100.00;101032.53;5116916;28;20447;-71
2022/02/03 10:57:29;;;;;;;0.40;0.30;;;;;;;6.69;100.00;101031.75;5115127;28;20472;-71
2022/02/03 11:00:11;;;;;;;0.40;0.20;;;;;;;6.72;100.00;101025.00;5114173;28;20469;-71
2022/02/03 11:03:03;;;;;;;0.40;0.30;;;;;;;6.76;100.00;101026.91;5116582;28;20459;-70
2022/02/03 11:05:54;;;;;;;0.40;0.30;;;;;;;6.79;100.00;101031.78;5115965;28;20439;-68
2022/02/03 11:08:27;;;;;;;0.40;0.20;;;;;;;6.80;100.00;101028.00;5116441;28;20518;-70
2022/02/03 11:10:58;;;;;;;0.40;0.27;;;;;;;6.78;100.00;101026.66;5115665;28;20448;-72
2022/02/03 11:13:30;;;;;;;0.40;0.20;;;;;;;6.77;100.00;101025.03;5115122;28;20774;-71
2022/02/03 11:16:01;;;;;;;0.40;0.23;;;;;;;6.65;100.00;101024.47;5112294;28;20918;-71
2022/02/03 11:18:28;;;;;;;0.40;0.30;;;;;;;6.66;100.00;101012.63;5114842;28;20528;-71
2022/02/03 11:20:54;;;;;;;0.40;0.30;;;;;;;6.55;100.00;101014.44;5115028;28;20455;-71
2022/02/03 11:23:32;;;;;;;0.40;0.30;;;;;;;6.61;100.00;101015.28;5116134;28;20538;-71
2022/02/03 11:26:12;;;;;;;0.60;0.60;;;;;;;6.56;100.00;101011.50;5115804;28;20905;-71
2022/02/03 11:32:04;;;;;;;0.40;0.27;;;;;;;6.56;100.00;101002.63;5115779;28;20446;-71
2022/02/03 11:40:44;;;;;;;0.40;0.27;;;;;;;6.59;100.00;101002.06;5079239;28;20534;-71
2022/02/03 11:48:59;;;;;;;0.40;0.30;;;;;;;6.54;100.00;100985.91;5035030;28;20837;-71
2022/02/03 12:00:36;;;;;;;0.40;0.30;;;;;;;6.56;100.00;100964.94;5069466;28;20530;-75
2022/02/03 12:12:17;;;;;;;0.40;0.30;;;;;;;6.65;100.00;100955.28;5070573;28;20441;-75
2022/02/03 12:17:49;;;;;;;0.40;0.30;;;;;;;6.64;100.00;100934.00;5069751;28;20406;-75
2022/02/03 12:20:34;;;;;;;0.40;0.23;;;;;;;6.65;100.00;100938.34;5069772;28;20473;-72
2022/02/03 12:23:04;;;;;;;0.40;0.30;;;;;;;6.67;100.00;100936.16;5069471;28;20464;-72
2022/02/03 12:25:47;;;;;;;0.40;0.20;;;;;;;6.71;100.00;100942.63;5069660;28;20495;-72
2022/02/03 12:28:30;;;;;;;2.90;1.50;;;;;;;6.72;100.00;100939.66;5055025;28;20492;-70
2022/02/03 12:31:25;;;;;;;0.40;0.20;;;;;;;6.77;100.00;100938.88;5049586;28;20462;-73
2022/02/03 12:39:33;;;;;;;0.40;0.30;;;;;;;6.79;100.00;100923.28;5058890;28;20551;-71
2022/02/03 12:42:04;;;;;;;0.40;0.20;;;;;;;6.77;100.00;100923.56;5058982;28;20492;-70
2022/02/03 12:44:36;;;;;;;0.40;0.20;;;;;;;6.76;100.00;100913.84;5059371;28;20434;-70
2022/02/03 12:47:05;;;;;;;0.40;0.30;;;;;;;6.77;100.00;100922.72;5065572;28;20455;-69
2022/02/03 12:49:36;;;;;;;0.40;0.30;;;;;;;6.78;100.00;100914.41;5055586;28;20867;-69
2022/02/03 12:52:24;;;;;;;0.40;0.30;;;;;;;6.78;100.00;100914.41;5055395;28;20462;-69
2022/02/03 12:54:51;;;;;;;0.40;0.20;;;;;;;6.84;100.00;100907.13;5055335;28;20538;-70
2022/02/03 12:57:32;;;;;;;0.40;0.30;;;;;;;6.88;100.00;100897.44;5055159;28;20543;-69
2022/02/03 13:00:17;;;;;;;0.40;0.30;;;;;;;6.91;100.00;100886.13;5055062;28;20576;-72
2022/02/03 13:02:55;;;;;;;0.40;0.30;;;;;;;6.89;100.00;100892.84;5055227;28;20632;-72
2022/02/03 13:05:24;;;;;;;0.40;0.30;;;;;;;6.91;100.00;100877.25;5055104;28;20433;-72
2022/02/03 13:07:52;;;;;;;0.40;0.30;;;;;;;6.92;100.00;100884.25;5054998;28;20455;-72
2022/02/03 13:10:22;;;;;;;0.40;0.20;;;;;;;6.92;100.00;100876.16;5054900;28;20557;-73
2022/02/03 13:12:50;;;;;;;0.40;0.20;;;;;;;6.94;100.00;100879.38;5054639;28;20925;-74
2022/02/03 13:15:29;;;;;;;0.40;0.20;;;;;;;6.96;100.00;100874.56;5054874;28;20456;-74
2022/02/03 13:17:59;;;;;;;0.40;0.30;;;;;;;6.97;100.00;100868.91;5054879;28;20430;-74
2022/02/03 13:20:37;;;;;;;0.40;0.27;;;;;;;6.95;100.00;100870.22;5036175;28;20477;-75
2022/02/03 13:23:08;;;;;;;0.40;0.20;;;;;;;6.99;100.00;100871.31;5034924;28;20463;-73
2022/02/03 13:25:45;;;;;;;0.40;0.30;;;;;;;7.02;100.00;100870.78;5034792;28;20439;-70
2022/02/03 13:28:16;;;;;;;0.40;0.27;;;;;;;7.02;100.00;100860.81;5034779;28;20428;-71
2022/02/03 13:30:49;;;;;;;0.40;0.30;;;;;;;7.02;100.00;100851.94;5039677;28;20484;-71
2022/02/03 13:33:21;;;;;;;0.40;0.30;;;;;;;7.03;100.00;100853.53;5042739;28;20457;-76
2022/02/03 13:35:53;;;;;;;0.40;0.20;;;;;;;7.03;100.00;100850.84;5043571;28;20967;-73
2022/02/03 13:38:33;;;;;;;0.40;0.30;;;;;;;7.06;100.00;100843.03;5044134;28;20442;-74
2022/02/03 13:41:11;;;;;;;0.40;0.20;;;;;;;7.09;100.00;100844.38;5044656;28;20466;-72
2022/02/03 13:43:40;;;;;;;0.40;0.30;;;;;;;7.06;100.00;100843.03;5042054;28;20436;-73
2022/02/03 13:46:09;;;;;;;0.40;0.20;;;;;;;7.08;100.00;100848.13;5043233;28;20489;-71
2022/02/03 13:48:37;;;;;;;0.40;0.30;;;;;;;7.12;100.00;100854.59;5042710;28;20449;-73
2022/02/03 13:51:10;;;;;;;0.40;0.23;;;;;;;7.14;100.00;100844.38;5043089;28;20494;-74
2022/02/03 13:53:43;;;;;;;0.40;0.20;;;;;;;7.18;100.00;100845.44;5042221;28;20440;-72
2022/02/03 14:15:48;;;;;;;0.50;0.40;;;;;;;7.26;100.00;100815.25;5024325;28;20918;-69
2022/02/03 14:18:23;;;;;;;0.40;0.23;;;;;;;7.27;100.00;100816.88;5053285;28;20430;-69
2022/02/03 14:21:00;;;;;;;0.40;0.30;;;;;;;7.30;100.00;100816.34;5052184;28;20469;-68
2022/02/03 14:28:51;;;;;;;0.40;0.20;;;;;;;7.38;100.00;100809.56;5053347;28;20492;-69
2022/02/03 14:31:18;;;;;;;0.40;0.30;;;;;;;7.39;100.00;100804.97;5053240;28;20555;-69
2022/02/03 14:33:46;;;;;;;0.40;0.30;;;;;;;7.40;100.00;100795.84;5053374;28;20449;-69
2022/02/03 14:36:16;;;;;;;0.40;0.30;;;;;;;7.42;100.00;100801.75;5052890;28;20999;-69
2022/02/03 14:38:49;;;;;;;0.87;0.87;;;;;;;7.44;100.00;100794.19;5053320;28;20481;-69
2022/02/03 14:41:23;;;;;;;0.93;0.93;;;;;;;7.44;100.00;100789.63;5052943;28;20975;-69
2022/02/03 14:43:49;;;;;;;0.40;0.30;;;;;;;7.49;100.00;100786.09;5053375;28;20438;-69
2022/02/03 14:46:17;;;;;;;0.40;0.30;;;;;;;7.48;100.00;100790.69;5053263;28;20446;-69
2022/02/03 14:48:46;;;;;;;0.40;0.30;;;;;;;7.50;100.00;100793.91;5053215;28;20521;-70
2022/02/03 14:51:17;;;;;;;0.40;0.27;;;;;;;7.45;100.00;100787.72;5053135;28;20466;-69
2022/02/03 14:53:54;;;;;;;0.40;0.30;;;;;;;7.48;100.00;100787.16;5052845;28;20974;-70
2022/02/03 14:59:05;;;;;;;0.40;0.30;;;;;;;7.47;100.00;100789.03;5052957;28;20410;-74
2022/02/03 15:01:33;;;;;;;0.50;0.40;;;;;;;7.50;100.00;100779.63;5052993;28;20473;-74
2022/02/03 15:04:03;;;;;;;0.40;0.20;;;;;;;7.50;100.00;100780.41;5052984;28;20442;-70
2022/02/03 15:06:36;;;;;;;0.40;0.30;;;;;;;7.50;100.00;100779.63;5053108;28;20446;-69
2022/02/03 15:09:17;;;;;;;0.40;0.20;;;;;;;7.48;100.00;100777.22;5053047;28;20423;-69
2022/02/03 15:12:02;;;;;;;0.40;0.30;;;;;;;7.50;100.00;100776.91;5051944;28;20565;-69
2022/02/03 15:14:29;;;;;;;0.40;0.30;;;;;;;7.52;100.00;100772.03;5052955;28;20443;-69
2022/02/03 15:16:55;;;;;;;0.50;0.40;;;;;;;7.53;100.00;100771.00;5052380;28;20494;-69
2022/02/03 15:19:23;;;;;;;0.40;0.20;;;;;;;7.56;100.00;100770.41;5052735;28;20454;-70
2022/02/03 15:21:49;;;;;;;0.40;0.30;;;;;;;7.52;100.00;100762.06;5052321;28;20983;-70
2022/02/03 15:24:16;;;;;;;0.40;0.20;;;;;;;7.54;100.00;100761.81;5052359;28;20792;-70
2022/02/03 15:26:42;;;;;;;0.40;0.30;;;;;;;7.52;100.00;100761.25;5052550;28;20443;-70
2022/02/03 15:29:11;;;;;;;0.40;0.20;;;;;;;7.55;100.00;100760.72;5052565;28;20446;-70
2022/02/03 15:31:37;;;;;;;0.40;0.30;;;;;;;7.55;100.00;100753.44;5052491;28;20557;-70
2022/02/03 15:34:09;;;;;;;0.40;0.30;;;;;;;7.56;100.00;100756.94;5052557;28;20442;-70
2022/02/03 15:36:39;;;;;;;0.40;0.30;;;;;;;7.55;100.00;100755.34;5052077;28;20563;-69
2022/02/03 15:39:10;;;;;;;4.60;4.20;;;;;;;7.57;100.00;100755.88;5052268;28;20446;-70
2022/02/03 15:41:37;;;;;;;0.40;0.20;;;;;;;7.58;100.00;100760.19;5052377;28;20466;-70
2022/02/03 15:44:04;;;;;;;0.40;0.30;;;;;;;7.56;100.00;100757.75;5052452;28;20446;-70
2022/02/03 15:46:35;;;;;;;0.40;0.30;;;;;;;7.59;100.00;100754.50;5052414;28;20446;-69
2022/02/03 15:49:10;;;;;;;0.40;0.20;;;;;;;7.59;100.00;100743.72;5052082;28;20913;-69
2022/02/03 15:57:32;;;;;;;0.40;0.30;;;;;;;7.59;100.00;100753.69;5052165;28;20465;-70
2022/02/03 16:02:58;;;;;;;0.40;0.30;;;;;;;7.59;100.00;100749.13;5052149;28;20915;-69
2022/02/03 16:14:21;;;;;;;0.40;0.30;;;;;;;7.61;100.00;100759.59;5051723;28;20406;-70
2022/02/03 16:16:55;;;;;;;0.40;0.30;;;;;;;7.64;100.00;100739.38;5051396;28;20482;-70
2022/02/03 16:19:27;;;;;;;0.40;0.20;;;;;;;7.64;100.00;100750.97;5051933;28;20434;-70
2022/02/03 16:21:58;;;;;;;0.40;0.23;;;;;;;7.65;100.00;100749.09;5051829;28;20473;-70
2022/02/03 16:24:39;;;;;;;0.40;0.30;;;;;;;7.62;100.00;100747.75;5055664;28;20434;-70
2022/02/03 16:42:00;;;;;;;0.40;0.20;;;;;;;7.66;100.00;100740.75;5055424;28;20492;-75
2022/02/03 16:52:34;;;;;;;0.40;0.20;;;;;;;7.67;100.00;100728.06;5055286;28;20428;-74
2022/02/03 16:55:04;;;;;;;0.40;0.30;;;;;;;7.62;100.00;100726.19;5055419;28;20430;-75
2022/02/03 16:57:32;;;;;;;0.40;0.20;;;;;;;7.64;100.00;100725.91;5055249;28;20562;-72
2022/02/03 17:00:03;;;;;;;0.50;0.30;;;;;;;7.69;100.00;100725.88;5054838;28;20475;-73
2022/02/03 17:02:30;;;;;;;0.40;0.27;;;;;;;7.70;100.00;100722.09;5055331;28;20856;-73
2022/02/03 17:04:57;;;;;;;0.40;0.30;;;;;;;7.69;100.00;100712.41;5054857;28;20455;-72
2022/02/03 17:07:24;;;;;;;0.40;0.20;;;;;;;7.70;100.00;100711.31;5055087;28;20503;-72
2022/02/03 17:09:50;;;;;;;0.40;0.30;;;;;;;7.67;100.00;100706.50;5055258;28;20434;-72
2022/02/03 17:12:17;;;;;;;0.40;0.30;;;;;;;7.69;100.00;100715.91;5054771;28;20446;-74
2022/02/03 17:14:45;;;;;;;0.40;0.30;;;;;;;7.70;100.00;100711.31;5054448;28;20959;-73
2022/02/03 17:17:12;;;;;;;0.40;0.30;;;;;;;7.70;100.00;100703.22;5054523;28;20568;-73
2022/02/03 17:19:39;;;;;;;0.40;0.30;;;;;;;7.69;100.00;100710.50;5054620;28;20807;-73
2022/02/03 17:22:07;;;;;;;0.40;0.30;;;;;;;7.72;100.00;100701.06;5054481;28;20534;-73
2022/02/03 17:24:35;;;;;;;0.40;0.20;;;;;;;7.67;100.00;100699.22;5054627;28;20446;-73
2022/02/03 17:27:08;;;;;;;0.40;0.27;;;;;;;7.67;100.00;100710.00;5054183;28;20966;-73
2022/02/03 17:29:45;;;;;;;0.40;0.30;;;;;;;7.69;100.00;100710.50;5054360;28;20426;-73
2022/02/03 17:32:21;;;;;;;0.70;0.70;;;;;;;7.71;100.00;100715.63;5054427;28;20441;-73
2022/02/03 17:52:31;;;;;;;0.40;0.30;;;;;;;7.71;100.00;100718.34;5054067;28;20425;-72
2022/02/03 18:11:00;;;;;;;0.40;0.20;;;;;;;7.67;100.00;100695.72;5051472;28;20556;-74
2022/02/03 18:30:06;;;;;;;2.97;2.77;;;;;;;7.63;100.00;100676.59;5036205;28;20449;-71
2022/02/03 18:32:44;;;;;;;0.67;0.67;;;;;;;7.63;100.00;100679.28;5053840;28;20431;-72
2022/02/03 18:51:43;;;;;;;0.40;0.30;;;;;;;7.69;100.00;100656.59;5053274;28;20496;-71
2022/02/03 18:54:24;;;;;;;0.40;0.30;;;;;;;7.68;100.00;100665.78;5053424;28;20434;-71
2022/02/03 18:56:57;;;;;;;0.40;0.30;;;;;;;7.71;100.00;100661.72;5053075;28;20994;-71
2022/02/03 18:59:50;;;;;;;0.40;0.23;;;;;;;7.70;100.00;100660.91;5053400;28;20437;-71
2022/02/03 19:24:25;;;;;;;0.40;0.30;;;;;;;7.62;100.00;100626.47;5053221;28;20461;-71